Hlavní strana
METAR-TAF:

METAR-TAF

Letiště :

New River Valley Airport

Dublin, Virginie, Spojené státy americké

zeměpisná šířka: 37-08N, zeměpisná délka: 080-41W, výška: 642 m

Aktuální stav počasí

Zpráva byla vytvořena před 22 minutami, v 08:55 UTC
Bezvětří
Teplota 9°C
Vlhkost vzduchu 93%
Tlak 1019 hPa
Viditelnost: 16.1 km
Polojasno ve výšce 7500 ft

METAR: KPSK 060855Z AUTO 00000KT 10SM SCT075 09/08 A3008 RMK AO2 T00920080

Čas: 05:17 (09:17 UTC)


TAF: chybějící

Stav a předpovědi počasí z více než 4 000 letišť (zprávy METAR a TAF).

Červené a žluté tečky na mapě představují dostupné meteorologické stanice.

Když kurzor umístíte na tečku, zobrazí se název stanice.

Pak kliknutím zobrazíte stav a předpověď počasí.

Chcete-li změnit mapu, kliknutím na zelené tlačítko se znaménkem +mapu přiblížíte, kliknutím na zelené tlačítko se znaménkem – mapu oddálíte a kliknutím na zelené šipky přejdete na sousední mapy.


METAR-TAF: